Time;durP1;ratioP1;P1;durP2;ratioP2;P2;SDS_P1;SDS_P2;PMS_P1;PMS_P2;Temp;Humidity;BMP_temperature;BMP_pressure;BME280_temperature;BME280_humidity;BME280_pressure;Samples;Min_cycle;Max_cycle;Signal;HPM_P1;HPM_P2
2022/07/24 00:01:53;;;;;;;1.88;1.20;;;;;;;;;;10445020;28;20216;-74
2022/07/24 00:06:54;;;;;;;1.20;1.08;;;;;;;;;;10444503;28;20190;-74
2022/07/24 00:11:55;;;;;;;1.92;1.02;;;;;;;;;;10445141;28;20187;-75
2022/07/24 00:16:56;;;;;;;1.20;1.10;;;;;;;;;;10445433;28;20283;-73
2022/07/24 00:21:59;;;;;;;1.52;1.52;;;;;;;;;;10450111;28;20248;-75
2022/07/24 00:27:00;;;;;;;2.58;1.25;;;;;;;;;;10458069;28;20562;-74
2022/07/24 00:32:01;;;;;;;1.65;1.02;;;;;;;;;;10425759;28;20234;-74
2022/07/24 00:37:03;;;;;;;0.90;0.90;;;;;;;;;;10444581;28;20210;-74
2022/07/24 00:42:04;;;;;;;3.55;1.17;;;;;;;;;;10445776;28;20174;-73
2022/07/24 00:47:05;;;;;;;1.20;1.15;;;;;;;;;;10444437;28;20304;-74
2022/07/24 00:52:06;;;;;;;3.63;1.20;;;;;;;;;;10445830;28;20689;-74
2022/07/24 00:57:07;;;;;;;2.25;1.10;;;;;;;;;;10422166;28;20199;-74
2022/07/24 01:02:08;;;;;;;1.10;1.10;;;;;;;;;;10437716;28;20248;-74
2022/07/24 01:07:09;;;;;;;1.00;1.00;;;;;;;;;;10444909;28;20179;-74
2022/07/24 01:12:10;;;;;;;1.00;1.00;;;;;;;;;;10444727;28;20183;-73
2022/07/24 01:17:11;;;;;;;1.25;1.20;;;;;;;;;;10449990;28;20716;-73
2022/07/24 01:22:12;;;;;;;1.08;1.08;;;;;;;;;;10441310;28;20179;-73
2022/07/24 01:27:13;;;;;;;1.20;0.90;;;;;;;;;;10444380;28;20183;-73
2022/07/24 01:32:14;;;;;;;1.67;1.25;;;;;;;;;;10431595;28;20226;-74
2022/07/24 01:37:15;;;;;;;1.20;1.20;;;;;;;;;;10443214;28;20699;-73
2022/07/24 01:42:19;;;;;;;0.90;0.90;;;;;;;;;;10444905;28;20214;-73
2022/07/24 01:47:20;;;;;;;1.15;1.05;;;;;;;;;;10461102;28;20252;-73
2022/07/24 01:52:24;;;;;;;1.10;0.90;;;;;;;;;;10452769;28;20538;-74
2022/07/24 01:57:26;;;;;;;2.67;1.10;;;;;;;;;;10450232;28;20207;-74
2022/07/24 02:02:27;;;;;;;1.60;1.00;;;;;;;;;;10448638;28;20218;-73
2022/07/24 02:07:28;;;;;;;3.55;1.13;;;;;;;;;;10451114;28;20572;-73
2022/07/24 02:12:29;;;;;;;1.23;1.23;;;;;;;;;;10452048;28;20273;-74
2022/07/24 02:17:30;;;;;;;1.08;1.08;;;;;;;;;;10448841;28;20285;-74
2022/07/24 02:22:33;;;;;;;1.83;1.15;;;;;;;;;;10450509;28;20188;-73
2022/07/24 02:27:34;;;;;;;1.65;1.55;;;;;;;;;;10437355;28;20286;-73
2022/07/24 02:32:35;;;;;;;1.50;1.50;;;;;;;;;;10448551;28;20230;-72
2022/07/24 02:37:37;;;;;;;1.40;1.40;;;;;;;;;;10450949;28;20207;-73
2022/07/24 02:42:39;;;;;;;1.25;1.20;;;;;;;;;;10449276;28;20179;-73
2022/07/24 02:48:09;;;;;;;2.13;1.70;;;;;;;;;;10449687;28;20800;-73
2022/07/24 02:53:10;;;;;;;1.35;1.10;;;;;;;;;;10438604;28;20721;-73
2022/07/24 02:58:11;;;;;;;1.35;1.35;;;;;;;;;;10442625;28;20211;-73
2022/07/24 03:03:12;;;;;;;3.00;1.20;;;;;;;;;;10437335;28;20673;-73
2022/07/24 03:08:13;;;;;;;1.35;1.35;;;;;;;;;;10448498;28;20212;-73
2022/07/24 03:13:15;;;;;;;1.30;1.30;;;;;;;;;;10444203;28;20185;-73
2022/07/24 03:18:16;;;;;;;1.60;1.50;;;;;;;;;;10464417;28;20633;-74
2022/07/24 03:23:17;;;;;;;1.52;1.52;;;;;;;;;;10444422;28;20187;-73
2022/07/24 03:28:18;;;;;;;1.17;1.17;;;;;;;;;;10445309;28;20195;-72
2022/07/24 03:33:19;;;;;;;1.30;1.30;;;;;;;;;;10462410;28;20225;-72
2022/07/24 03:38:20;;;;;;;3.00;1.50;;;;;;;;;;10448166;28;20226;-73
2022/07/24 03:43:22;;;;;;;2.17;1.15;;;;;;;;;;10447047;28;20627;-73
2022/07/24 03:48:23;;;;;;;1.50;1.50;;;;;;;;;;10450183;28;20194;-74
2022/07/24 03:53:24;;;;;;;3.33;1.60;;;;;;;;;;10446561;28;20186;-73
2022/07/24 03:58:25;;;;;;;1.75;1.65;;;;;;;;;;10433732;28;20211;-73
2022/07/24 04:03:26;;;;;;;1.60;1.60;;;;;;;;;;10444752;28;20698;-73
2022/07/24 04:08:27;;;;;;;2.90;1.90;;;;;;;;;;10443475;28;20190;-73
2022/07/24 04:13:29;;;;;;;4.25;1.95;;;;;;;;;;10446195;28;20202;-74
2022/07/24 04:18:30;;;;;;;3.25;1.80;;;;;;;;;;10444935;28;20221;-74
2022/07/24 04:23:31;;;;;;;2.90;1.20;;;;;;;;;;10445917;28;20248;-73
2022/07/24 04:28:32;;;;;;;2.13;1.98;;;;;;;;;;10432229;28;20298;-73
2022/07/24 04:33:34;;;;;;;1.90;1.80;;;;;;;;;;10447148;28;20586;-74
2022/07/24 04:38:35;;;;;;;2.78;2.10;;;;;;;;;;10457075;28;20305;-73
2022/07/24 04:43:36;;;;;;;1.92;1.90;;;;;;;;;;10433078;28;20175;-73
2022/07/24 04:48:37;;;;;;;2.05;1.95;;;;;;;;;;10443468;28;20198;-73
2022/07/24 04:53:38;;;;;;;2.10;2.10;;;;;;;;;;10443330;28;20256;-73
2022/07/24 04:58:39;;;;;;;3.15;2.13;;;;;;;;;;10440272;28;20207;-74
2022/07/24 05:03:40;;;;;;;3.15;2.03;;;;;;;;;;10443804;28;20210;-74
2022/07/24 05:08:41;;;;;;;1.88;1.77;;;;;;;;;;10430844;28;20182;-73
2022/07/24 05:13:42;;;;;;;1.80;1.70;;;;;;;;;;10441503;28;20197;-73
2022/07/24 05:18:43;;;;;;;2.20;1.83;;;;;;;;;;10445093;28;20215;-73
2022/07/24 05:23:45;;;;;;;3.15;1.77;;;;;;;;;;10451548;28;20643;-73
2022/07/24 05:28:46;;;;;;;1.58;1.58;;;;;;;;;;10453921;28;20217;-73
2022/07/24 05:33:47;;;;;;;1.65;1.55;;;;;;;;;;10453677;28;20228;-73
2022/07/24 05:38:48;;;;;;;2.38;1.38;;;;;;;;;;10447218;28;20593;-73
2022/07/24 05:43:49;;;;;;;1.55;1.50;;;;;;;;;;10437620;28;20202;-74
2022/07/24 05:48:50;;;;;;;1.73;1.73;;;;;;;;;;10453094;28;20688;-74
2022/07/24 05:53:51;;;;;;;4.50;1.48;;;;;;;;;;10453901;28;20190;-74
2022/07/24 05:58:52;;;;;;;1.10;1.10;;;;;;;;;;10464413;28;20210;-73
2022/07/24 06:03:53;;;;;;;1.20;1.20;;;;;;;;;;10447146;28;20207;-74
2022/07/24 06:08:54;;;;;;;1.08;0.88;;;;;;;;;;10451647;28;20189;-74
2022/07/24 06:13:56;;;;;;;2.50;0.80;;;;;;;;;;10449575;28;20353;-73
2022/07/24 06:18:57;;;;;;;2.05;0.90;;;;;;;;;;10455809;28;20199;-75
2022/07/24 06:23:58;;;;;;;3.50;0.85;;;;;;;;;;10450544;28;20179;-74
2022/07/24 06:28:59;;;;;;;1.27;0.82;;;;;;;;;;10449550;28;20191;-74
2022/07/24 06:34:00;;;;;;;2.40;0.80;;;;;;;;;;10446586;28;20218;-74
2022/07/24 06:39:01;;;;;;;2.17;0.98;;;;;;;;;;10447826;28;20218;-75
2022/07/24 06:44:02;;;;;;;2.63;1.10;;;;;;;;;;10436876;28;20182;-75
2022/07/24 06:49:03;;;;;;;0.80;0.77;;;;;;;;;;10439215;28;20198;-75
2022/07/24 06:54:04;;;;;;;0.98;0.93;;;;;;;;;;10448618;28;20966;-76
2022/07/24 06:59:05;;;;;;;1.20;0.95;;;;;;;;;;10450957;28;20257;-75
2022/07/24 07:04:06;;;;;;;1.67;0.70;;;;;;;;;;10449136;28;20578;-74
2022/07/24 07:09:07;;;;;;;1.95;0.63;;;;;;;;;;10450568;28;20195;-74
2022/07/24 07:14:08;;;;;;;1.20;0.70;;;;;;;;;;10461299;28;20240;-76
2022/07/24 07:19:09;;;;;;;1.30;0.75;;;;;;;;;;10436133;28;20211;-74
2022/07/24 07:24:10;;;;;;;1.75;0.55;;;;;;;;;;10443940;28;20650;-76
2022/07/24 07:29:11;;;;;;;1.85;0.60;;;;;;;;;;10453355;28;20658;-75
2022/07/24 07:34:12;;;;;;;0.63;0.63;;;;;;;;;;10452506;28;20218;-77
2022/07/24 07:39:13;;;;;;;1.02;1.02;;;;;;;;;;10458783;28;20712;-79
2022/07/24 07:44:15;;;;;;;0.75;0.75;;;;;;;;;;10451516;28;20175;-77
2022/07/24 07:49:16;;;;;;;2.38;0.50;;;;;;;;;;10452141;28;20285;-77
2022/07/24 07:54:18;;;;;;;0.95;0.70;;;;;;;;;;10435242;28;20253;-77
2022/07/24 07:59:20;;;;;;;3.03;0.45;;;;;;;;;;10446438;28;20576;-77
2022/07/24 08:04:21;;;;;;;0.52;0.52;;;;;;;;;;10444843;28;20210;-80
2022/07/24 08:09:22;;;;;;;0.60;0.60;;;;;;;;;;10452552;28;20199;-80
2022/07/24 08:14:23;;;;;;;1.20;0.57;;;;;;;;;;10453770;28;20207;-83
2022/07/24 08:19:24;;;;;;;1.52;0.60;;;;;;;;;;10453424;28;20206;-83
2022/07/24 08:24:25;;;;;;;1.50;0.50;;;;;;;;;;10451691;28;20665;-83
2022/07/24 08:29:27;;;;;;;1.15;0.63;;;;;;;;;;10456503;28;20565;-84
2022/07/24 08:34:28;;;;;;;1.50;0.60;;;;;;;;;;10458820;28;20643;-85
2022/07/24 08:39:29;;;;;;;2.58;0.70;;;;;;;;;;10445507;28;20760;-83
2022/07/24 08:44:30;;;;;;;0.70;0.70;;;;;;;;;;10455857;28;20269;-84
2022/07/24 08:49:31;;;;;;;0.70;0.70;;;;;;;;;;10454022;28;20207;-85
2022/07/24 08:54:33;;;;;;;0.70;0.70;;;;;;;;;;10456773;28;20236;-83
2022/07/24 08:59:34;;;;;;;1.27;0.70;;;;;;;;;;10468685;28;20205;-81
2022/07/24 09:04:43;;;;;;;0.73;0.70;;;;;;;;;;10437409;28;20215;-76
2022/07/24 09:09:45;;;;;;;2.33;0.73;;;;;;;;;;10465420;28;20612;-72
2022/07/24 09:14:47;;;;;;;0.60;0.60;;;;;;;;;;10456362;28;20230;-75
2022/07/24 09:19:56;;;;;;;0.63;0.63;;;;;;;;;;10456450;28;20309;-76
2022/07/24 09:25:06;;;;;;;0.70;0.70;;;;;;;;;;10464470;28;20301;-83
2022/07/24 09:30:08;;;;;;;1.17;0.90;;;;;;;;;;10460741;28;20217;-81
2022/07/24 09:35:10;;;;;;;1.20;1.00;;;;;;;;;;10426936;28;20218;-80
2022/07/24 09:40:11;;;;;;;0.73;0.60;;;;;;;;;;10462715;28;20229;-79
2022/07/24 09:45:13;;;;;;;0.88;0.85;;;;;;;;;;10457457;28;20182;-77
2022/07/24 09:50:15;;;;;;;0.90;0.90;;;;;;;;;;10457260;28;20210;-77
2022/07/24 09:55:20;;;;;;;2.55;1.08;;;;;;;;;;10463741;28;20650;-81
2022/07/24 10:00:21;;;;;;;1.55;1.10;;;;;;;;;;10447304;28;20962;-80
2022/07/24 10:05:23;;;;;;;1.08;1.00;;;;;;;;;;10455297;28;20184;-77
2022/07/24 10:10:27;;;;;;;1.02;1.02;;;;;;;;;;10449635;28;20179;-78
2022/07/24 10:15:30;;;;;;;7.97;1.10;;;;;;;;;;10458804;28;20213;-78
2022/07/24 10:20:38;;;;;;;2.85;1.17;;;;;;;;;;10461365;28;20221;-78
2022/07/24 10:25:55;;;;;;;1.20;1.20;;;;;;;;;;10455849;28;20184;-78
2022/07/24 10:30:56;;;;;;;1.52;1.10;;;;;;;;;;10443962;28;20283;-77
2022/07/24 10:35:59;;;;;;;1.25;0.80;;;;;;;;;;10447727;28;20183;-76
2022/07/24 10:41:03;;;;;;;1.90;1.13;;;;;;;;;;10443166;28;20209;-78
2022/07/24 10:46:04;;;;;;;3.03;1.40;;;;;;;;;;10446536;28;20198;-78
2022/07/24 10:51:07;;;;;;;1.35;1.33;;;;;;;;;;10448386;28;20307;-71
2022/07/24 10:56:15;;;;;;;1.38;0.90;;;;;;;;;;10447441;28;24263;-73
2022/07/24 11:01:28;;;;;;;1.13;1.13;;;;;;;;;;10449219;28;20835;-81
2022/07/24 11:06:42;;;;;;;1.40;1.30;;;;;;;;;;10451856;28;20261;-79
2022/07/24 11:12:03;;;;;;;1.23;1.23;;;;;;;;;;10442114;28;20183;-80
2022/07/24 11:17:23;;;;;;;2.95;1.40;;;;;;;;;;10448045;28;20238;-79
2022/07/24 11:22:37;;;;;;;2.28;1.58;;;;;;;;;;10453596;28;20182;-78
2022/07/24 11:27:42;;;;;;;1.40;1.40;;;;;;;;;;10448002;28;20182;-80
2022/07/24 11:32:44;;;;;;;1.50;1.50;;;;;;;;;;10452405;28;20214;-80
2022/07/24 11:37:46;;;;;;;2.22;2.05;;;;;;;;;;10465130;28;21174;-78
2022/07/24 11:42:54;;;;;;;1.20;1.20;;;;;;;;;;10465081;28;20189;-81
2022/07/24 11:47:55;;;;;;;1.27;1.27;;;;;;;;;;10454836;28;20210;-79
2022/07/24 11:52:57;;;;;;;1.42;1.33;;;;;;;;;;10449614;28;20186;-82
2022/07/24 11:57:58;;;;;;;1.17;1.17;;;;;;;;;;10456904;28;20724;-82
2022/07/24 12:03:03;;;;;;;1.10;1.10;;;;;;;;;;10454717;28;20207;-81
2022/07/24 12:08:15;;;;;;;1.20;1.20;;;;;;;;;;10450223;28;20266;-81
2022/07/24 12:13:16;;;;;;;1.50;1.40;;;;;;;;;;10442379;28;20189;-80
2022/07/24 12:18:18;;;;;;;0.98;0.98;;;;;;;;;;10446537;28;20206;-81
2022/07/24 12:23:19;;;;;;;1.20;1.20;;;;;;;;;;10444353;28;21181;-78
2022/07/24 12:28:20;;;;;;;2.15;1.20;;;;;;;;;;10460300;28;20231;-78
2022/07/24 12:33:23;;;;;;;2.50;0.80;;;;;;;;;;10443438;28;20237;-78
2022/07/24 12:38:28;;;;;;;0.90;0.90;;;;;;;;;;10447695;28;20230;-77
2022/07/24 12:43:29;;;;;;;0.98;0.98;;;;;;;;;;10448380;28;20181;-76
2022/07/24 12:48:30;;;;;;;1.48;1.10;;;;;;;;;;10446451;28;20202;-77
2022/07/24 12:53:34;;;;;;;1.10;1.10;;;;;;;;;;10445648;28;20260;-74
2022/07/24 12:58:56;;;;;;;1.10;1.10;;;;;;;;;;10436953;28;20209;-73
2022/07/24 13:03:58;;;;;;;0.95;0.95;;;;;;;;;;10442129;28;20237;-74
2022/07/24 13:08:59;;;;;;;0.80;0.80;;;;;;;;;;10446227;28;20178;-74
2022/07/24 13:14:00;;;;;;;0.77;0.77;;;;;;;;;;10462466;28;20181;-78
2022/07/24 13:19:02;;;;;;;2.97;1.38;;;;;;;;;;10448823;28;20213;-75
2022/07/24 13:24:07;;;;;;;0.93;0.93;;;;;;;;;;10441592;28;20186;-75
2022/07/24 13:29:08;;;;;;;1.25;0.82;;;;;;;;;;10450195;28;20643;-75
2022/07/24 13:34:10;;;;;;;0.80;0.80;;;;;;;;;;10448031;28;20226;-75
2022/07/24 13:39:11;;;;;;;1.10;0.90;;;;;;;;;;10449924;28;20206;-75
2022/07/24 13:44:12;;;;;;;0.88;0.88;;;;;;;;;;10455410;28;20181;-76
2022/07/24 13:49:15;;;;;;;0.80;0.80;;;;;;;;;;10455001;28;20231;-76
2022/07/24 13:54:16;;;;;;;2.60;0.98;;;;;;;;;;10451168;28;20190;-76
2022/07/24 13:59:17;;;;;;;0.80;0.80;;;;;;;;;;10450938;28;20205;-76
2022/07/24 14:04:18;;;;;;;2.60;0.95;;;;;;;;;;10449303;28;20293;-75
2022/07/24 14:09:20;;;;;;;1.25;0.82;;;;;;;;;;10455544;28;20556;-69
2022/07/24 14:14:21;;;;;;;3.67;0.70;;;;;;;;;;10454919;28;20603;-70
2022/07/24 14:19:22;;;;;;;3.08;0.88;;;;;;;;;;10454311;28;20225;-69
2022/07/24 14:24:23;;;;;;;1.40;0.70;;;;;;;;;;10452965;28;20177;-72
2022/07/24 14:29:24;;;;;;;0.80;0.80;;;;;;;;;;10453643;28;20175;-73
2022/07/24 14:34:25;;;;;;;0.70;0.70;;;;;;;;;;10443490;28;20234;-70
2022/07/24 14:39:30;;;;;;;0.70;0.70;;;;;;;;;;10450668;28;20206;-70
2022/07/24 14:44:31;;;;;;;1.80;0.73;;;;;;;;;;10451438;28;20235;-72
2022/07/24 14:49:32;;;;;;;1.00;1.00;;;;;;;;;;10444169;28;20713;-73
2022/07/24 14:54:33;;;;;;;0.93;0.93;;;;;;;;;;10450840;28;20914;-73
2022/07/24 14:59:34;;;;;;;0.70;0.70;;;;;;;;;;10452267;28;20206;-70
2022/07/24 15:04:36;;;;;;;1.25;0.80;;;;;;;;;;10441074;28;20950;-71
2022/07/24 15:09:37;;;;;;;0.93;0.90;;;;;;;;;;10454432;28;20181;-77
2022/07/24 15:14:38;;;;;;;1.17;1.13;;;;;;;;;;10456248;28;20661;-76
2022/07/24 15:19:42;;;;;;;1.85;0.70;;;;;;;;;;10454643;28;20689;-75
2022/07/24 15:24:43;;;;;;;1.23;1.20;;;;;;;;;;10462974;28;20190;-74
2022/07/24 15:29:44;;;;;;;0.80;0.80;;;;;;;;;;10447568;28;20277;-78
2022/07/24 15:34:45;;;;;;;3.20;2.08;;;;;;;;;;10445210;28;20732;-77
2022/07/24 15:39:46;;;;;;;0.90;0.90;;;;;;;;;;10448124;28;20206;-78
2022/07/24 15:44:47;;;;;;;0.80;0.80;;;;;;;;;;10453245;28;20235;-81
2022/07/24 15:49:48;;;;;;;1.00;1.00;;;;;;;;;;10456664;28;20202;-78
2022/07/24 15:54:49;;;;;;;2.83;0.90;;;;;;;;;;10439953;28;20212;-78
2022/07/24 15:59:50;;;;;;;0.90;0.90;;;;;;;;;;10445551;28;20252;-77
2022/07/24 16:04:52;;;;;;;0.90;0.90;;;;;;;;;;10455765;28;20222;-77
2022/07/24 16:09:53;;;;;;;1.55;0.82;;;;;;;;;;10450429;28;20190;-76
2022/07/24 16:14:54;;;;;;;1.15;0.90;;;;;;;;;;10441903;28;20182;-73
2022/07/24 16:19:55;;;;;;;0.93;0.93;;;;;;;;;;10445139;28;20214;-73
2022/07/24 16:24:56;;;;;;;1.27;1.27;;;;;;;;;;10444153;28;20178;-71
2022/07/24 16:29:57;;;;;;;0.82;0.82;;;;;;;;;;10448809;28;20845;-71
2022/07/24 16:34:59;;;;;;;1.73;0.70;;;;;;;;;;10442778;28;21144;-73
2022/07/24 16:40:00;;;;;;;3.15;1.13;;;;;;;;;;10447795;28;20368;-71
2022/07/24 16:45:01;;;;;;;0.77;0.77;;;;;;;;;;10444363;28;20243;-72
2022/07/24 16:50:02;;;;;;;1.65;1.60;;;;;;;;;;10453028;28;20206;-71
2022/07/24 16:55:04;;;;;;;1.23;1.20;;;;;;;;;;10448751;28;20217;-66
2022/07/24 17:00:08;;;;;;;2.05;1.70;;;;;;;;;;10443374;28;20229;-66
2022/07/24 17:05:10;;;;;;;2.45;1.85;;;;;;;;;;10442682;28;20210;-67
2022/07/24 17:10:11;;;;;;;2.35;1.42;;;;;;;;;;10441551;28;20217;-65
2022/07/24 17:15:12;;;;;;;1.10;1.10;;;;;;;;;;10446053;28;20174;-65
2022/07/24 17:20:13;;;;;;;1.45;1.30;;;;;;;;;;10449264;28;20232;-65
2022/07/24 17:25:14;;;;;;;1.17;1.08;;;;;;;;;;10444395;28;20178;-66
2022/07/24 17:30:15;;;;;;;2.55;1.20;;;;;;;;;;10445102;28;20187;-67
2022/07/24 17:35:16;;;;;;;0.95;0.88;;;;;;;;;;10446242;28;20218;-65
2022/07/24 17:40:18;;;;;;;0.90;0.90;;;;;;;;;;10442362;28;20207;-65
2022/07/24 17:45:20;;;;;;;1.00;1.00;;;;;;;;;;10437844;28;20183;-66
2022/07/24 17:50:22;;;;;;;3.05;1.13;;;;;;;;;;10440214;28;20297;-66
2022/07/24 17:55:23;;;;;;;3.83;1.23;;;;;;;;;;10443917;28;20175;-66
2022/07/24 18:00:24;;;;;;;2.70;1.23;;;;;;;;;;10442461;28;20692;-68
2022/07/24 18:05:25;;;;;;;1.20;1.00;;;;;;;;;;10440404;28;20185;-67
2022/07/24 18:10:26;;;;;;;1.00;1.00;;;;;;;;;;10447491;28;20210;-68
2022/07/24 18:15:27;;;;;;;0.80;0.80;;;;;;;;;;10445658;28;20198;-67
2022/07/24 18:20:28;;;;;;;1.35;1.00;;;;;;;;;;10435861;28;20713;-66
2022/07/24 18:25:29;;;;;;;1.00;0.98;;;;;;;;;;10440688;28;20198;-76
2022/07/24 18:30:30;;;;;;;0.90;0.90;;;;;;;;;;10440483;28;20248;-76
2022/07/24 18:35:31;;;;;;;0.88;0.85;;;;;;;;;;10441345;28;21857;-73
2022/07/24 18:40:33;;;;;;;2.22;0.82;;;;;;;;;;10446134;28;20207;-74
2022/07/24 18:45:34;;;;;;;0.93;0.93;;;;;;;;;;10439126;28;20387;-75
2022/07/24 18:50:35;;;;;;;1.15;0.75;;;;;;;;;;10445529;28;20284;-73
2022/07/24 18:55:36;;;;;;;2.38;1.00;;;;;;;;;;10440057;28;20829;-76
2022/07/24 19:00:37;;;;;;;1.40;1.23;;;;;;;;;;10430365;28;25363;-73
2022/07/24 19:05:39;;;;;;;4.78;1.25;;;;;;;;;;10451636;28;20187;-76
2022/07/24 19:10:40;;;;;;;2.25;1.17;;;;;;;;;;10446652;28;20175;-80
2022/07/24 19:15:41;;;;;;;1.52;1.08;;;;;;;;;;10451068;28;20182;-79
2022/07/24 19:20:42;;;;;;;1.98;1.10;;;;;;;;;;10449280;28;20705;-78
2022/07/24 19:25:43;;;;;;;1.15;1.15;;;;;;;;;;10444512;28;20179;-75
2022/07/24 19:30:44;;;;;;;2.70;1.17;;;;;;;;;;10450870;28;21092;-79
2022/07/24 19:35:45;;;;;;;2.47;1.67;;;;;;;;;;10451310;28;20186;-75
2022/07/24 19:40:46;;;;;;;1.25;1.25;;;;;;;;;;10450912;28;20210;-78
2022/07/24 19:45:47;;;;;;;1.25;1.25;;;;;;;;;;10446881;28;20214;-71
2022/07/24 19:50:49;;;;;;;2.00;1.20;;;;;;;;;;10446533;28;21071;-79
2022/07/24 19:55:50;;;;;;;5.25;1.20;;;;;;;;;;10460341;28;20251;-81
2022/07/24 20:00:51;;;;;;;1.30;1.30;;;;;;;;;;10445792;28;20218;-81
2022/07/24 20:05:52;;;;;;;0.98;0.98;;;;;;;;;;10449569;28;20230;-82
2022/07/24 20:10:55;;;;;;;1.35;1.27;;;;;;;;;;10461385;28;20175;-80
2022/07/24 20:15:56;;;;;;;2.17;1.58;;;;;;;;;;10456560;28;20295;-80
2022/07/24 20:20:57;;;;;;;1.08;1.00;;;;;;;;;;10458793;28;20225;-80
2022/07/24 20:25:58;;;;;;;1.52;1.50;;;;;;;;;;10451454;28;20673;-80
2022/07/24 20:30:59;;;;;;;1.73;0.95;;;;;;;;;;10445365;28;20218;-80
2022/07/24 20:36:00;;;;;;;1.08;1.05;;;;;;;;;;10462981;28;20185;-81
2022/07/24 20:41:02;;;;;;;1.15;1.15;;;;;;;;;;10449014;28;20238;-81
2022/07/24 20:46:03;;;;;;;1.00;1.00;;;;;;;;;;10443091;28;20610;-81
2022/07/24 20:51:04;;;;;;;1.08;1.00;;;;;;;;;;10454388;28;20198;-82
2022/07/24 20:56:06;;;;;;;1.80;1.00;;;;;;;;;;10442550;28;20186;-81
2022/07/24 21:01:07;;;;;;;1.33;1.33;;;;;;;;;;10442867;28;20319;-79
2022/07/24 21:06:08;;;;;;;2.10;1.30;;;;;;;;;;10452250;28;20616;-79
2022/07/24 21:11:09;;;;;;;1.15;1.10;;;;;;;;;;10440589;28;20187;-80
2022/07/24 21:16:10;;;;;;;1.60;1.00;;;;;;;;;;10436928;28;20176;-80
2022/07/24 21:21:11;;;;;;;1.77;1.77;;;;;;;;;;10440356;28;20732;-79
2022/07/24 21:26:13;;;;;;;1.73;1.27;;;;;;;;;;10443091;28;20618;-80
2022/07/24 21:31:15;;;;;;;2.42;1.40;;;;;;;;;;10434472;28;20302;-80
2022/07/24 21:36:16;;;;;;;1.98;1.33;;;;;;;;;;10438317;28;20218;-79
2022/07/24 21:41:17;;;;;;;2.50;1.67;;;;;;;;;;10438403;28;20202;-79
2022/07/24 21:46:18;;;;;;;1.23;1.23;;;;;;;;;;10436207;28;20742;-79
2022/07/24 21:51:19;;;;;;;1.55;1.45;;;;;;;;;;10443188;28;20203;-78
2022/07/24 21:56:21;;;;;;;1.20;1.20;;;;;;;;;;10437451;28;20279;-79
2022/07/24 22:01:22;;;;;;;1.30;1.20;;;;;;;;;;10439672;28;20218;-80
2022/07/24 22:06:23;;;;;;;1.65;1.10;;;;;;;;;;10442246;28;20187;-79
2022/07/24 22:11:24;;;;;;;2.33;1.40;;;;;;;;;;10446732;28;20183;-78
2022/07/24 22:16:25;;;;;;;1.83;1.15;;;;;;;;;;10436471;28;20197;-78
2022/07/24 22:21:26;;;;;;;3.00;1.38;;;;;;;;;;10452404;28;20202;-78
2022/07/24 22:26:28;;;;;;;0.90;0.85;;;;;;;;;;10454687;28;20183;-79
2022/07/24 22:31:29;;;;;;;1.10;1.10;;;;;;;;;;10454142;28;20303;-78
2022/07/24 22:36:33;;;;;;;1.20;1.20;;;;;;;;;;10457820;28;20190;-78
2022/07/24 22:41:34;;;;;;;1.65;1.55;;;;;;;;;;10475435;28;20205;-78
2022/07/24 22:46:35;;;;;;;2.15;1.30;;;;;;;;;;10455866;28;20186;-78
2022/07/24 22:51:36;;;;;;;1.40;1.30;;;;;;;;;;10460583;28;20256;-79
2022/07/24 22:56:38;;;;;;;1.48;1.20;;;;;;;;;;10453772;28;20186;-78
2022/07/24 23:01:39;;;;;;;2.83;1.15;;;;;;;;;;10440676;28;20271;-79
2022/07/24 23:06:40;;;;;;;1.23;1.23;;;;;;;;;;10453693;28;20188;-79
2022/07/24 23:11:41;;;;;;;1.38;1.20;;;;;;;;;;10455915;28;20186;-78
2022/07/24 23:16:42;;;;;;;1.55;1.35;;;;;;;;;;10448288;28;20186;-78
2022/07/24 23:21:44;;;;;;;1.60;1.55;;;;;;;;;;10467457;28;20211;-78
2022/07/24 23:26:49;;;;;;;1.55;1.50;;;;;;;;;;10444786;28;20175;-77
2022/07/24 23:31:50;;;;;;;1.63;1.52;;;;;;;;;;10449846;28;20207;-78
2022/07/24 23:36:51;;;;;;;1.70;1.35;;;;;;;;;;10446655;28;20171;-77
2022/07/24 23:41:52;;;;;;;1.38;1.38;;;;;;;;;;10465849;28;20175;-78
2022/07/24 23:46:53;;;;;;;1.00;1.00;;;;;;;;;;10445098;28;20621;-77
2022/07/24 23:51:54;;;;;;;1.40;1.40;;;;;;;;;;10443582;28;20175;-78
2022/07/24 23:56:55;;;;;;;1.25;1.25;;;;;;;;;;10439897;28;20206;-78
